createdAt,value
2018-07-03T00:00:29.771Z,97872.72
2018-07-03T00:01:01.346Z,97872.66
2018-07-03T00:01:32.954Z,97874.02
2018-07-03T00:02:04.537Z,97874.42
2018-07-03T00:02:36.145Z,97880.39
2018-07-03T00:03:07.724Z,97876.58
2018-07-03T00:03:39.352Z,97877.84
2018-07-03T00:04:10.941Z,97879.55
2018-07-03T00:04:42.526Z,97875.72
2018-07-03T00:05:14.125Z,97869.73
2018-07-03T00:05:45.720Z,97874.80
2018-07-03T00:06:17.316Z,97872.23
2018-07-03T00:06:48.912Z,97872.23
2018-07-03T00:07:20.517Z,97872.22
2018-07-03T00:07:52.092Z,97870.50
2018-07-03T00:08:23.673Z,97871.78
2018-07-03T00:08:55.255Z,97871.38
2018-07-03T00:09:26.846Z,97870.94
2018-07-03T00:09:58.452Z,97871.31
2018-07-03T00:10:30.047Z,97873.93
2018-07-03T00:11:01.661Z,97863.29
2018-07-03T00:11:33.254Z,97870.92
2018-07-03T00:12:04.828Z,97873.92
2018-07-03T00:12:36.410Z,97872.66
2018-07-03T00:13:08.014Z,97869.25
2018-07-03T00:13:39.646Z,97867.53
2018-07-03T00:14:11.253Z,97872.66
2018-07-03T00:14:42.857Z,97865.84
2018-07-03T00:15:14.464Z,97873.94
2018-07-03T00:15:46.073Z,97869.69
2018-07-03T00:16:17.648Z,97874.36
2018-07-03T00:16:49.226Z,97873.52
2018-07-03T00:17:20.814Z,97870.55
2018-07-03T00:17:52.386Z,97871.43
2018-07-03T00:18:23.969Z,97869.27
2018-07-03T00:18:55.573Z,97870.59
2018-07-03T00:19:27.181Z,97876.55
2018-07-03T00:19:58.792Z,97873.58
2018-07-03T00:20:30.407Z,97871.44
2018-07-03T00:21:02.017Z,97876.98
2018-07-03T00:21:33.626Z,97872.29
2018-07-03T00:22:05.220Z,97877.42
2018-07-03T00:22:36.799Z,97876.56
2018-07-03T00:23:08.415Z,97876.14
2018-07-03T00:23:40.051Z,97874.42
2018-07-03T00:24:11.640Z,97874.86
2018-07-03T00:24:43.221Z,97879.98
2018-07-03T00:25:14.820Z,97879.12
2018-07-03T00:25:46.415Z,97882.48
2018-07-03T00:26:18.026Z,97870.95
2018-07-03T00:26:49.633Z,97880.69
2018-07-03T00:27:21.208Z,97877.26
2018-07-03T00:27:52.810Z,97880.61
2018-07-03T00:28:24.384Z,97867.94
2018-07-03T00:28:55.956Z,97874.97
2018-07-03T00:29:27.556Z,97875.37
2018-07-03T00:29:59.164Z,97874.91
2018-07-03T00:30:30.745Z,97879.14
2018-07-03T00:31:02.350Z,97870.19
2018-07-03T00:31:33.962Z,97877.40
2018-07-03T00:32:05.539Z,97872.70
2018-07-03T00:32:37.117Z,97871.84
2018-07-03T00:33:08.707Z,97873.98
2018-07-03T00:33:40.327Z,97877.44
2018-07-03T00:34:11.913Z,97869.38
2018-07-03T00:34:43.519Z,97865.16
2018-07-03T00:35:15.112Z,97866.03
2018-07-03T00:35:46.715Z,97867.74
2018-07-03T00:36:18.285Z,97866.11
2018-07-03T00:36:49.889Z,97869.08
2018-07-03T00:37:21.501Z,97868.23
2018-07-03T00:37:53.095Z,97869.95
2018-07-03T00:38:24.700Z,97863.60
2018-07-03T00:38:56.300Z,97857.39
2018-07-03T00:39:27.876Z,97867.83
2018-07-03T00:39:59.458Z,97869.16
2018-07-03T00:40:31.060Z,97869.59
2018-07-03T00:41:02.640Z,97872.58
2018-07-03T00:41:34.237Z,97868.37
2018-07-03T00:42:05.837Z,97870.50
2018-07-03T00:42:37.436Z,97869.23
2018-07-03T00:43:09.041Z,97869.66
2018-07-03T00:43:40.685Z,97870.52
2018-07-03T00:44:12.297Z,97872.23
2018-07-03T00:44:43.910Z,97871.38
2018-07-03T00:45:15.520Z,97867.97
2018-07-03T00:45:47.130Z,97872.23
2018-07-03T00:46:18.737Z,97871.82
2018-07-03T00:46:50.325Z,97864.61
2018-07-03T00:47:21.899Z,97868.88
2018-07-03T00:47:53.500Z,97868.83
2018-07-03T00:48:25.082Z,97871.82
2018-07-03T00:48:56.733Z,97871.01
2018-07-03T00:49:28.345Z,97868.45
2018-07-03T00:49:59.940Z,97867.61
2018-07-03T00:50:31.523Z,97871.44
2018-07-03T00:51:03.121Z,97871.87
2018-07-03T00:51:34.733Z,97869.32
2018-07-03T00:52:06.337Z,97873.16
2018-07-03T00:52:37.917Z,97865.92
2018-07-03T00:53:09.520Z,97875.30
2018-07-03T00:53:41.140Z,97868.05
2018-07-03T00:54:12.740Z,97868.90
2018-07-03T00:54:44.332Z,97870.19
2018-07-03T00:55:15.903Z,97874.03
2018-07-03T00:55:47.482Z,97870.19
2018-07-03T00:56:19.048Z,97871.89
2018-07-03T00:56:50.707Z,97872.33
2018-07-03T00:57:22.297Z,97865.55
2018-07-03T00:57:53.868Z,97868.11
2018-07-03T00:58:25.460Z,97870.66
2018-07-03T00:58:57.105Z,97865.55
2018-07-03T00:59:28.713Z,97867.26
2018-07-03T01:00:00.326Z,97865.13
2018-07-03T01:00:31.913Z,97863.43
2018-07-03T01:01:03.503Z,97869.39
2018-07-03T01:01:35.075Z,97864.27
2018-07-03T01:02:06.653Z,97871.52
2018-07-03T01:02:38.233Z,97863.43
2018-07-03T01:03:09.817Z,97865.13
2018-07-03T01:03:41.421Z,97862.58
2018-07-03T01:04:13.025Z,97865.56
2018-07-03T01:04:44.625Z,97868.98
2018-07-03T01:05:16.216Z,97865.14
2018-07-03T01:05:47.817Z,97860.03
2018-07-03T01:06:19.421Z,97861.74
2018-07-03T01:06:51.024Z,97864.30
2018-07-03T01:07:22.629Z,97863.45
2018-07-03T01:07:54.234Z,97860.94
2018-07-03T01:08:25.838Z,97864.77
2018-07-03T01:08:57.441Z,97860.08
2018-07-03T01:09:29.040Z,97860.94
2018-07-03T01:10:00.627Z,97857.95
2018-07-03T01:10:32.213Z,97863.49
2018-07-03T01:11:03.814Z,97863.92
2018-07-03T01:11:35.396Z,97866.91
2018-07-03T01:12:06.968Z,97861.37
2018-07-03T01:12:38.554Z,97863.92
2018-07-03T01:13:10.138Z,97861.37
2018-07-03T01:13:41.726Z,97859.26
2018-07-03T01:14:13.369Z,97858.81
2018-07-03T01:14:44.973Z,97859.23
2018-07-03T01:15:16.568Z,97863.07
2018-07-03T01:15:48.139Z,97861.80
2018-07-03T01:16:19.745Z,97860.95
2018-07-03T01:16:51.358Z,97868.20
2018-07-03T01:17:22.962Z,97869.48
2018-07-03T01:17:54.565Z,97865.22
2018-07-03T01:18:26.148Z,97862.23
2018-07-03T01:18:57.754Z,97861.38
2018-07-03T01:19:29.356Z,97866.92
2018-07-03T01:20:00.961Z,97863.50
2018-07-03T01:20:32.572Z,97864.36
2018-07-03T01:21:04.154Z,97860.97
2018-07-03T01:21:35.789Z,97866.50
2018-07-03T01:22:07.397Z,97864.36
2018-07-03T01:22:38.969Z,97860.10
2018-07-03T01:23:10.573Z,97865.23
2018-07-03T01:23:42.154Z,97865.22
2018-07-03T01:24:13.738Z,97863.52
2018-07-03T01:24:45.365Z,97863.09
2018-07-03T01:25:16.949Z,97863.09
2018-07-03T01:25:48.565Z,97865.66
2018-07-03T01:26:20.169Z,97863.94
2018-07-03T01:26:51.759Z,97863.08
2018-07-03T01:27:23.360Z,97863.92
2018-07-03T01:27:54.945Z,97864.78
2018-07-03T01:28:26.528Z,97861.37
2018-07-03T01:28:58.137Z,97861.38
2018-07-03T01:29:29.739Z,97860.10
2018-07-03T01:30:01.322Z,97866.06
2018-07-03T01:30:32.901Z,97862.25
2018-07-03T01:31:04.478Z,97865.22
2018-07-03T01:31:36.082Z,97863.52
2018-07-03T01:32:07.690Z,97862.66
2018-07-03T01:32:39.273Z,97859.26
2018-07-03T01:33:10.873Z,97866.47
2018-07-03T01:33:42.482Z,97864.73
2018-07-03T01:34:14.075Z,97861.31
2018-07-03T01:34:45.686Z,97862.16
2018-07-03T01:35:17.285Z,97858.73
2018-07-03T01:35:48.884Z,97866.84
2018-07-03T01:36:20.484Z,97864.71
2018-07-03T01:36:52.066Z,97871.09
2018-07-03T01:37:23.669Z,97862.16
2018-07-03T01:37:55.244Z,97864.71
2018-07-03T01:38:26.836Z,97863.01
2018-07-03T01:38:58.421Z,97866.84
2018-07-03T01:39:30.042Z,97865.56
2018-07-03T01:40:01.655Z,97860.03
2018-07-03T01:40:33.245Z,97866.00
2018-07-03T01:41:04.823Z,97865.19
2018-07-03T01:41:36.392Z,97862.16
2018-07-03T01:42:07.963Z,97865.58
2018-07-03T01:42:39.546Z,97860.47
2018-07-03T01:43:11.140Z,97863.87
2018-07-03T01:43:42.731Z,97862.21
2018-07-03T01:44:14.337Z,97868.19
2018-07-03T01:44:45.936Z,97861.38
2018-07-03T01:45:17.517Z,97856.33
2018-07-03T01:45:49.101Z,97863.94
2018-07-03T01:46:20.692Z,97855.41
2018-07-03T01:46:52.277Z,97854.55
2018-07-03T01:47:23.882Z,97853.27
2018-07-03T01:47:55.489Z,97859.19
2018-07-03T01:48:27.060Z,97848.94
2018-07-03T01:48:58.627Z,97854.05
2018-07-03T01:49:30.209Z,97851.92
2018-07-03T01:50:01.818Z,97857.88
2018-07-03T01:50:33.425Z,97855.33
2018-07-03T01:51:05.038Z,97855.74
2018-07-03T01:51:36.641Z,97859.14
2018-07-03T01:52:08.221Z,97856.12
2018-07-03T01:52:39.816Z,97851.47
2018-07-03T01:53:11.388Z,97856.55
2018-07-03T01:53:42.957Z,97855.25
2018-07-03T01:54:14.524Z,97856.55
2018-07-03T01:54:46.110Z,97852.75
2018-07-03T01:55:17.727Z,97854.48
2018-07-03T01:55:49.305Z,97853.19
2018-07-03T01:56:20.909Z,97857.05
2018-07-03T01:56:52.512Z,97849.51
2018-07-03T01:57:24.146Z,97861.30
2018-07-03T01:57:55.749Z,97862.14
2018-07-03T01:58:27.337Z,97854.06
2018-07-03T01:58:58.941Z,97858.75
2018-07-03T01:59:30.536Z,97860.03
2018-07-03T02:00:02.173Z,97857.09
2018-07-03T02:00:33.754Z,97857.52
2018-07-03T02:01:05.358Z,97859.23
2018-07-03T02:01:36.961Z,97856.67
2018-07-03T02:02:08.556Z,97858.38
2018-07-03T02:02:40.141Z,97858.39
2018-07-03T02:03:11.726Z,97857.53
2018-07-03T02:03:43.305Z,97852.44
2018-07-03T02:04:14.889Z,97856.69
2018-07-03T02:04:46.477Z,97860.52
2018-07-03T02:05:18.109Z,97853.28
2018-07-03T02:05:49.716Z,97854.98
2018-07-03T02:06:21.297Z,97855.42
2018-07-03T02:06:52.877Z,97855.84
2018-07-03T02:07:24.453Z,97852.01
2018-07-03T02:07:56.056Z,97851.57
2018-07-03T02:08:27.664Z,97856.27
2018-07-03T02:08:59.272Z,97852.01
2018-07-03T02:09:30.878Z,97851.15
2018-07-03T02:10:02.514Z,97851.15
2018-07-03T02:10:34.097Z,97850.30
2018-07-03T02:11:05.706Z,97851.16
2018-07-03T02:11:37.313Z,97848.18
2018-07-03T02:12:08.920Z,97852.44
2018-07-03T02:12:40.505Z,97851.63
2018-07-03T02:13:12.109Z,97852.02
2018-07-03T02:13:43.689Z,97850.30
2018-07-03T02:14:15.272Z,97847.80
2018-07-03T02:14:46.844Z,97842.67
2018-07-03T02:15:18.459Z,97848.65
2018-07-03T02:15:50.046Z,97846.52
2018-07-03T02:16:21.636Z,97845.23
2018-07-03T02:16:53.232Z,97847.38
2018-07-03T02:17:24.819Z,97843.53
2018-07-03T02:17:56.401Z,97846.09
2018-07-03T02:18:27.991Z,97849.93
2018-07-03T02:18:59.582Z,97848.66
2018-07-03T02:19:31.190Z,97846.53
2018-07-03T02:20:02.825Z,97846.11
2018-07-03T02:20:34.397Z,97849.51
2018-07-03T02:21:05.992Z,97847.38
2018-07-03T02:21:37.578Z,97845.67
2018-07-03T02:22:09.148Z,97844.83
2018-07-03T02:22:40.753Z,97840.55
2018-07-03T02:23:12.338Z,97844.41
2018-07-03T02:23:43.920Z,97846.53
2018-07-03T02:24:15.512Z,97845.69
2018-07-03T02:24:47.112Z,97842.70
2018-07-03T02:25:18.750Z,97843.97
2018-07-03T02:25:50.365Z,97846.96
2018-07-03T02:26:21.969Z,97848.24
2018-07-03T02:26:53.573Z,97843.13
2018-07-03T02:27:25.153Z,97842.28
2018-07-03T02:27:56.743Z,97843.13
2018-07-03T02:28:28.345Z,97841.00
2018-07-03T02:28:59.952Z,97837.17
2018-07-03T02:29:31.523Z,97834.63
2018-07-03T02:30:03.126Z,97842.28
2018-07-03T02:30:34.733Z,97834.61
2018-07-03T02:31:06.318Z,97840.14
2018-07-03T02:31:37.916Z,97834.61
2018-07-03T02:32:09.512Z,97840.14
2018-07-03T02:32:41.088Z,97833.75
2018-07-03T02:33:12.693Z,97841.84
2018-07-03T02:33:44.301Z,97836.30
2018-07-03T02:34:15.885Z,97839.27
2018-07-03T02:34:47.476Z,97839.28
2018-07-03T02:35:19.108Z,97840.55
2018-07-03T02:35:50.715Z,97840.55
2018-07-03T02:36:22.321Z,97840.98
2018-07-03T02:36:53.916Z,97840.93
2018-07-03T02:37:25.521Z,97837.56
2018-07-03T02:37:57.130Z,97835.39
2018-07-03T02:38:28.741Z,97838.80
2018-07-03T02:39:00.336Z,97838.38
2018-07-03T02:39:31.957Z,97838.80
2018-07-03T02:40:03.605Z,97835.81
2018-07-03T02:40:35.180Z,97842.18
2018-07-03T02:41:06.766Z,97839.91
2018-07-03T02:41:38.344Z,97838.47
2018-07-03T02:42:09.920Z,97832.84
2018-07-03T02:42:41.502Z,97839.64
2018-07-03T02:43:13.116Z,97837.09
2018-07-03T02:43:44.726Z,97843.50
2018-07-03T02:44:16.296Z,97842.23
2018-07-03T02:44:47.901Z,97841.01
2018-07-03T02:45:19.541Z,97838.48
2018-07-03T02:45:51.136Z,97840.66
2018-07-03T02:46:22.740Z,97833.08
2018-07-03T02:46:54.349Z,97838.63
2018-07-03T02:47:25.959Z,97838.69
2018-07-03T02:47:57.561Z,97842.53
2018-07-03T02:48:29.168Z,97837.92
2018-07-03T02:49:00.755Z,97843.04
2018-07-03T02:49:32.357Z,97839.66
2018-07-03T02:50:03.968Z,97844.25
2018-07-03T02:50:35.563Z,97844.16
2018-07-03T02:51:07.153Z,97847.91
2018-07-03T02:51:38.724Z,97843.14
2018-07-03T02:52:10.325Z,97840.52
2018-07-03T02:52:41.903Z,97842.84
2018-07-03T02:53:13.487Z,97840.97
2018-07-03T02:53:45.073Z,97839.69
2018-07-03T02:54:16.667Z,97843.19
2018-07-03T02:54:48.262Z,97840.27
2018-07-03T02:55:19.894Z,97839.56
2018-07-03T02:55:51.486Z,97844.36
2018-07-03T02:56:23.067Z,97840.67
2018-07-03T02:56:54.645Z,97838.17
2018-07-03T02:57:26.245Z,97840.83
2018-07-03T02:57:57.853Z,97837.50
2018-07-03T02:58:29.438Z,97836.30
2018-07-03T02:59:01.004Z,97839.78
2018-07-03T02:59:32.587Z,97837.25
2018-07-03T03:00:04.197Z,97835.61
2018-07-03T03:00:35.818Z,97834.83
2018-07-03T03:01:07.415Z,97836.62
2018-07-03T03:01:39.026Z,97833.24
2018-07-03T03:02:14.313Z,97833.75
2018-07-03T03:02:45.914Z,97834.24
2018-07-03T03:03:17.516Z,97836.84
2018-07-03T03:03:49.100Z,97832.61
2018-07-03T03:04:20.710Z,97836.46
2018-07-03T03:04:52.284Z,97833.07
2018-07-03T03:05:23.888Z,97833.55
2018-07-03T03:05:55.476Z,97836.11
2018-07-03T03:06:27.082Z,97833.98
2018-07-03T03:06:58.689Z,97836.56
2018-07-03T03:07:30.293Z,97835.29
2018-07-03T03:08:01.876Z,97839.59
2018-07-03T03:08:33.461Z,97835.33
2018-07-03T03:09:05.052Z,97835.77
2018-07-03T03:09:36.666Z,97836.20
2018-07-03T03:10:08.278Z,97834.50
2018-07-03T03:10:39.921Z,97834.13
2018-07-03T03:11:11.506Z,97837.53
2018-07-03T03:11:43.085Z,97832.86
2018-07-03T03:12:14.665Z,97832.03
2018-07-03T03:12:46.239Z,97834.15
2018-07-03T03:13:17.821Z,97834.16
2018-07-03T03:13:49.397Z,97839.27
2018-07-03T03:14:20.988Z,97832.92
2018-07-03T03:14:52.570Z,97831.66
2018-07-03T03:15:24.176Z,97832.50
2018-07-03T03:15:55.768Z,97830.39
2018-07-03T03:16:27.377Z,97833.38
2018-07-03T03:16:58.972Z,97830.83
2018-07-03T03:17:30.577Z,97830.02
2018-07-03T03:18:02.148Z,97833.85
2018-07-03T03:18:33.741Z,97835.98
2018-07-03T03:19:05.324Z,97833.86
2018-07-03T03:19:36.929Z,97840.25
2018-07-03T03:20:08.537Z,97834.72
2018-07-03T03:20:40.186Z,97835.58
2018-07-03T03:21:11.756Z,97830.90
2018-07-03T03:21:43.361Z,97836.86
2018-07-03T03:22:14.936Z,97831.75
2018-07-03T03:22:46.543Z,97830.52
2018-07-03T03:23:18.152Z,97829.67
2018-07-03T03:23:49.775Z,97835.21
2018-07-03T03:24:21.363Z,97834.35
2018-07-03T03:24:52.945Z,97830.17
2018-07-03T03:25:24.563Z,97836.52
2018-07-03T03:25:56.166Z,97834.81
2018-07-03T03:26:27.749Z,97834.81
2018-07-03T03:26:59.366Z,97837.79
2018-07-03T03:27:30.964Z,97838.64
2018-07-03T03:28:02.576Z,97837.41
2018-07-03T03:28:34.186Z,97832.30
2018-07-03T03:29:05.775Z,97836.98
2018-07-03T03:29:37.358Z,97837.84
2018-07-03T03:30:08.939Z,97838.70
2018-07-03T03:30:40.545Z,97834.88
2018-07-03T03:31:12.146Z,97839.14
2018-07-03T03:31:43.749Z,97837.44
2018-07-03T03:32:15.337Z,97834.45
2018-07-03T03:32:46.926Z,97833.66
2018-07-03T03:33:18.525Z,97829.81
2018-07-03T03:33:50.119Z,97831.95
2018-07-03T03:34:21.729Z,97835.37
2018-07-03T03:34:53.310Z,97831.53
2018-07-03T03:35:24.925Z,97832.80
2018-07-03T03:35:56.501Z,97834.53
2018-07-03T03:36:28.101Z,97834.10
2018-07-03T03:36:59.709Z,97836.66
2018-07-03T03:37:31.304Z,97836.28
2018-07-03T03:38:02.909Z,97834.57
2018-07-03T03:38:34.513Z,97835.42
2018-07-03T03:39:06.118Z,97836.28
2018-07-03T03:39:37.716Z,97833.30
2018-07-03T03:40:09.321Z,97837.14
2018-07-03T03:40:40.916Z,97832.04
2018-07-03T03:41:12.501Z,97828.63
2018-07-03T03:41:44.095Z,97832.46
2018-07-03T03:42:15.701Z,97823.52
2018-07-03T03:42:47.291Z,97829.54
2018-07-03T03:43:18.874Z,97832.05
2018-07-03T03:43:50.444Z,97835.45
2018-07-03T03:44:22.036Z,97831.63
2018-07-03T03:44:53.631Z,97831.63
2018-07-03T03:45:25.278Z,97834.61
2018-07-03T03:45:56.863Z,97837.20
2018-07-03T03:46:28.438Z,97833.38
2018-07-03T03:47:00.020Z,97838.91
2018-07-03T03:47:31.591Z,97837.20
2018-07-03T03:48:03.173Z,97836.78
2018-07-03T03:48:34.777Z,97841.89
2018-07-03T03:49:06.389Z,97843.61
2018-07-03T03:49:37.998Z,97842.33
2018-07-03T03:50:09.605Z,97841.05
2018-07-03T03:50:41.216Z,97845.31
2018-07-03T03:51:12.805Z,97841.48
2018-07-03T03:51:44.473Z,97847.89
2018-07-03T03:52:16.053Z,97840.64
2018-07-03T03:52:47.620Z,97837.23
2018-07-03T03:53:19.188Z,97843.62
2018-07-03T03:53:50.800Z,97840.22
2018-07-03T03:54:22.409Z,97843.20
2018-07-03T03:54:54.013Z,97843.62
2018-07-03T03:55:25.588Z,97839.78
2018-07-03T03:55:57.210Z,97840.62
2018-07-03T03:56:28.817Z,97844.45
2018-07-03T03:57:00.422Z,97838.91
2018-07-03T03:57:32.013Z,97846.11
2018-07-03T03:58:03.603Z,97844.39
2018-07-03T03:58:35.210Z,97845.23
2018-07-03T03:59:06.797Z,97849.86
2018-07-03T03:59:38.385Z,97845.59
2018-07-03T04:00:09.970Z,97845.11
2018-07-03T04:00:41.613Z,97845.95
2018-07-03T04:01:13.222Z,97846.31
2018-07-03T04:01:44.791Z,97846.30
2018-07-03T04:02:16.405Z,97847.55
2018-07-03T04:02:47.994Z,97848.41
2018-07-03T04:03:19.585Z,97846.28
2018-07-03T04:03:51.189Z,97846.22
2018-07-03T04:04:22.778Z,97846.21
2018-07-03T04:04:54.367Z,97846.63
2018-07-03T04:05:25.974Z,97849.99
2018-07-03T04:05:57.619Z,97850.83
2018-07-03T04:06:29.225Z,97851.67
2018-07-03T04:07:00.817Z,97849.50
2018-07-03T04:07:32.399Z,97841.82
2018-07-03T04:08:04.006Z,97855.00
2018-07-03T04:08:35.600Z,97847.28
2018-07-03T04:09:07.208Z,97851.54
2018-07-03T04:09:38.804Z,97840.87
2018-07-03T04:10:10.395Z,97843.37
2018-07-03T04:10:41.992Z,97844.22
2018-07-03T04:11:13.604Z,97846.76
2018-07-03T04:11:45.206Z,97851.83
2018-07-03T04:12:16.780Z,97840.74
2018-07-03T04:12:48.348Z,97844.98
2018-07-03T04:13:19.921Z,97843.71
2018-07-03T04:13:51.531Z,97843.27
2018-07-03T04:14:23.137Z,97849.19
2018-07-03T04:14:54.708Z,97842.00
2018-07-03T04:15:26.299Z,97847.89
2018-07-03T04:15:57.945Z,97850.02
2018-07-03T04:16:29.516Z,97850.39
2018-07-03T04:17:01.121Z,97855.92
2018-07-03T04:17:32.708Z,97852.02
2018-07-03T04:18:04.274Z,97854.99
2018-07-03T04:18:35.873Z,97849.42
2018-07-03T04:19:07.468Z,97848.55
2018-07-03T04:19:39.057Z,97850.18
2018-07-03T04:20:10.632Z,97851.82
2018-07-03T04:20:42.234Z,97850.51
2018-07-03T04:21:13.856Z,97849.16
2018-07-03T04:21:45.457Z,97854.14
2018-07-03T04:22:17.060Z,97851.06
2018-07-03T04:22:48.674Z,97854.34
2018-07-03T04:23:20.285Z,97844.34
2018-07-03T04:23:51.872Z,97851.27
2018-07-03T04:24:23.469Z,97848.33
2018-07-03T04:24:55.041Z,97848.30
2018-07-03T04:25:26.645Z,97847.77
2018-07-03T04:25:58.254Z,97848.33
2018-07-03T04:26:29.873Z,97845.78
2018-07-03T04:27:01.457Z,97847.06
2018-07-03T04:27:33.029Z,97849.61
2018-07-03T04:28:04.628Z,97845.50
2018-07-03T04:28:36.224Z,97843.63
2018-07-03T04:29:07.800Z,97848.82
2018-07-03T04:29:39.377Z,97841.65
2018-07-03T04:30:10.984Z,97843.13
2018-07-03T04:30:42.557Z,97839.52
2018-07-03T04:31:14.152Z,97843.17
2018-07-03T04:31:45.795Z,97843.81
2018-07-03T04:32:17.445Z,97847.03
2018-07-03T04:32:49.049Z,97844.25
2018-07-03T04:33:20.634Z,97844.52
2018-07-03T04:33:52.214Z,97843.88
2018-07-03T04:34:23.807Z,97839.27
2018-07-03T04:34:55.415Z,97843.52
2018-07-03T04:35:27.021Z,97841.25
2018-07-03T04:35:58.602Z,97838.16
2018-07-03T04:36:30.250Z,97840.21
2018-07-03T04:37:01.848Z,97843.14
2018-07-03T04:37:33.459Z,97842.11
2018-07-03T04:38:05.049Z,97837.19
2018-07-03T04:38:36.628Z,97841.96
2018-07-03T04:39:08.214Z,97839.03
2018-07-03T04:39:39.793Z,97844.74
2018-07-03T04:40:11.378Z,97841.84
2018-07-03T04:40:42.965Z,97840.27
2018-07-03T04:41:14.569Z,97837.61
2018-07-03T04:41:46.197Z,97848.05
2018-07-03T04:42:17.796Z,97845.13
2018-07-03T04:42:49.386Z,97843.61
2018-07-03T04:43:20.991Z,97847.81
2018-07-03T04:43:52.598Z,97848.67
2018-07-03T04:44:24.181Z,97844.59
2018-07-03T04:44:55.793Z,97844.19
2018-07-03T04:45:27.377Z,97846.96
2018-07-03T04:45:58.957Z,97847.21
2018-07-03T04:46:30.537Z,97849.14
2018-07-03T04:47:02.146Z,97847.58
2018-07-03T04:47:33.739Z,97845.91
2018-07-03T04:48:05.333Z,97845.47
2018-07-03T04:48:36.919Z,97849.66
2018-07-03T04:49:08.502Z,97843.56
2018-07-03T04:49:40.096Z,97839.95
2018-07-03T04:50:11.706Z,97845.62
2018-07-03T04:50:43.317Z,97842.46
2018-07-03T04:51:14.905Z,97848.58
2018-07-03T04:51:46.514Z,97849.94
2018-07-03T04:52:18.107Z,97841.84
2018-07-03T04:52:49.704Z,97849.22
2018-07-03T04:53:21.296Z,97842.41
2018-07-03T04:53:52.911Z,97842.78
2018-07-03T04:54:24.494Z,97846.04
2018-07-03T04:54:56.092Z,97849.73
2018-07-03T04:55:27.678Z,97843.27
2018-07-03T04:55:59.284Z,97847.98
2018-07-03T04:56:30.873Z,97848.84
2018-07-03T04:57:02.482Z,97844.94
2018-07-03T04:57:34.056Z,97848.07
2018-07-03T04:58:05.642Z,97839.53
2018-07-03T04:58:37.240Z,97844.79
2018-07-03T04:59:08.854Z,97847.86
2018-07-03T04:59:40.466Z,97846.75
2018-07-03T05:00:12.073Z,97846.72
2018-07-03T05:00:43.681Z,97843.44
2018-07-03T05:01:15.260Z,97845.81
2018-07-03T05:01:46.872Z,97843.50
2018-07-03T05:02:18.457Z,97842.33
2018-07-03T05:02:50.036Z,97848.95
2018-07-03T05:03:21.644Z,97851.07
2018-07-03T05:03:53.234Z,97845.51
2018-07-03T05:04:24.813Z,97844.61
2018-07-03T05:04:56.405Z,97851.02
2018-07-03T05:05:28.004Z,97848.75
2018-07-03T05:05:59.587Z,97844.33
2018-07-03T05:06:31.197Z,97847.95
2018-07-03T05:07:02.772Z,97847.25
2018-07-03T05:07:34.359Z,97846.18
2018-07-03T05:08:05.976Z,97850.38
2018-07-03T05:08:37.557Z,97857.09
2018-07-03T05:09:09.162Z,97847.66
2018-07-03T05:09:40.736Z,97849.86
2018-07-03T05:10:12.392Z,97848.92
2018-07-03T05:10:43.943Z,97851.77
2018-07-03T05:11:15.529Z,97857.05
2018-07-03T05:11:47.108Z,97846.89
2018-07-03T05:12:18.713Z,97849.49
2018-07-03T05:12:50.283Z,97849.89
2018-07-03T05:13:21.855Z,97849.05
2018-07-03T05:13:53.427Z,97849.78
2018-07-03T05:14:25.000Z,97847.49
2018-07-03T05:14:56.572Z,97849.90
2018-07-03T05:15:28.182Z,97849.39
2018-07-03T05:15:59.789Z,97849.62
2018-07-03T05:16:31.387Z,97852.88
2018-07-03T05:17:03.023Z,97848.34
2018-07-03T05:17:34.673Z,97855.42
2018-07-03T05:18:06.250Z,97855.66
2018-07-03T05:18:37.910Z,97859.69
2018-07-03T05:19:09.509Z,97855.62
2018-07-03T05:19:41.089Z,97851.97
2018-07-03T05:20:12.684Z,97853.86
2018-07-03T05:20:44.294Z,97857.45
2018-07-03T05:21:15.906Z,97856.33
2018-07-03T05:21:47.513Z,97855.20
2018-07-03T05:22:19.114Z,97852.33
2018-07-03T05:22:50.726Z,97855.45
2018-07-03T05:23:22.305Z,97855.12
2018-07-03T05:23:53.914Z,97851.42
2018-07-03T05:24:25.503Z,97853.22
2018-07-03T05:24:57.096Z,97858.00
2018-07-03T05:25:28.681Z,97849.56
2018-07-03T05:26:00.281Z,97848.80
2018-07-03T05:26:31.893Z,97855.27
2018-07-03T05:27:03.548Z,97854.91
2018-07-03T05:27:35.154Z,97850.30
2018-07-03T05:28:06.737Z,97856.34
2018-07-03T05:28:38.317Z,97854.27
2018-07-03T05:29:09.920Z,97858.57
2018-07-03T05:29:41.516Z,97856.08
2018-07-03T05:30:13.125Z,97856.14
2018-07-03T05:30:44.714Z,97857.44
2018-07-03T05:31:16.317Z,97859.64
2018-07-03T05:31:47.938Z,97858.41
2018-07-03T05:32:19.571Z,97855.86
2018-07-03T05:32:51.166Z,97853.81
2018-07-03T05:33:22.753Z,97854.72
2018-07-03T05:33:54.361Z,97858.98
2018-07-03T05:34:25.939Z,97861.17
2018-07-03T05:34:57.528Z,97857.34
2018-07-03T05:35:29.114Z,97861.63
2018-07-03T05:36:00.711Z,97858.27
2018-07-03T05:36:32.299Z,97857.44
2018-07-03T05:37:03.892Z,97857.91
2018-07-03T05:37:35.525Z,97857.94
2018-07-03T05:38:07.100Z,97859.64
2018-07-03T05:38:38.692Z,97859.27
2018-07-03T05:39:10.289Z,97864.81
2018-07-03T05:39:41.877Z,97861.84
2018-07-03T05:40:13.482Z,97859.34
2018-07-03T05:40:45.270Z,97859.34
2018-07-03T05:41:16.690Z,97861.49
2018-07-03T05:41:48.279Z,97857.23
2018-07-03T05:42:19.890Z,97869.59
2018-07-03T05:42:51.546Z,97868.36
2018-07-03T05:43:23.121Z,97871.78
2018-07-03T05:43:54.733Z,97872.64
2018-07-03T05:44:26.337Z,97871.80
2018-07-03T05:44:58.028Z,97867.16
2018-07-03T05:45:29.536Z,97871.84
2018-07-03T05:46:01.145Z,97879.52
2018-07-03T05:46:32.720Z,97877.82
2018-07-03T05:47:04.304Z,97876.98
2018-07-03T05:47:35.928Z,97874.44
2018-07-03T05:48:07.513Z,97879.16
2018-07-03T05:48:39.107Z,97872.34
2018-07-03T05:49:10.690Z,97877.03
2018-07-03T05:49:42.294Z,97874.91
2018-07-03T05:50:13.878Z,97886.41
2018-07-03T05:50:45.458Z,97875.77
2018-07-03T05:51:17.069Z,97885.14
2018-07-03T05:51:48.664Z,97883.02
2018-07-03T05:52:20.299Z,97882.60
2018-07-03T05:52:51.910Z,97882.66
2018-07-03T05:53:23.493Z,97880.95
2018-07-03T05:53:55.060Z,97883.94
2018-07-03T05:54:26.627Z,97881.38
2018-07-03T05:54:58.209Z,97880.10
2018-07-03T05:55:29.814Z,97878.45
2018-07-03T05:56:01.426Z,97883.13
2018-07-03T05:56:33.025Z,97889.91
2018-07-03T05:57:04.783Z,97882.71
2018-07-03T05:57:36.287Z,97891.66
2018-07-03T05:58:07.874Z,97884.42
2018-07-03T05:58:39.474Z,97888.27
2018-07-03T05:59:11.257Z,97883.58
2018-07-03T05:59:42.686Z,97885.28
2018-07-03T06:00:14.279Z,97879.33
2018-07-03T06:00:45.894Z,97882.73
2018-07-03T06:01:17.506Z,97891.68
2018-07-03T06:01:49.111Z,97880.66
2018-07-03T06:02:20.721Z,97886.19
2018-07-03T06:02:52.312Z,97887.47
2018-07-03T06:03:23.894Z,97883.21
2018-07-03T06:03:55.536Z,97885.34
2018-07-03T06:04:27.089Z,97884.92
2018-07-03T06:04:58.660Z,97886.62
2018-07-03T06:05:30.241Z,97885.78
2018-07-03T06:06:01.818Z,97887.05
2018-07-03T06:06:33.402Z,97885.78
2018-07-03T06:07:04.986Z,97882.37
2018-07-03T06:07:36.598Z,97881.95
2018-07-03T06:08:08.189Z,97882.44
2018-07-03T06:08:39.756Z,97890.05
2018-07-03T06:09:11.329Z,97888.40
2018-07-03T06:09:42.924Z,97886.69
2018-07-03T06:10:14.514Z,97888.82
2018-07-03T06:10:46.103Z,97892.66
2018-07-03T06:11:17.686Z,97896.48